METAR stanice u blizini

 

LYBE - Beograd / Surčin, Srbija
Ažurirano: 30/10/2020 00:00
Slaba kiša, Pretežno oblačno
Slaba kiša, Pretežno oblačno
 Pravac vetra S
Vetar: S 13 km/h
Temperatura: 11°C
Tačka rose: 11°C
Vlažnost: 100%
Pritisak: 1022 hPa
Pregled: Light Rain
Oblaci: Mostly Cloudy
Vidljivost: 10 km
Cloud details: Mostly Cloudy 213 m
Mostly Cloudy 914 m
2020/10/29 23:00 LYBE 292300Z 01007KT 9999 -RA BKN007 BKN030 11/11 Q1022 NOSIG
LYBT - Beograd / Batajnica, Srbija
Ažurirano: 30/10/2020 00:00
Partly Cloudy
Partly Cloudy
 Pravac vetra SSZ
Vetar: SSZ 9 km/h
Temperatura: 11°C
Tačka rose: 11°C
Vlažnost: 100%
Pritisak: 1021 hPa
Oblaci: Partly Cloudy
Vidljivost: 10 km
Cloud details: Partly Cloudy 274 m
2020/10/29 23:00 LYBT 292300Z 33005KT 9999 SCT009 11/11 Q1021 RERA NOSIG
LYVR - Vršac, Srbija
Ažurirano: 30/10/2020 00:00
Padavine, Oblačno
Padavine, Oblačno
 Pravac vetra S
Vetar: S 17 km/h
Temperatura: 11°C
Tačka rose: 10°C
Vlažnost: 94%
Pritisak: 1021 hPa
Pregled: Padavine
Oblaci: Oblačno
Vidljivost: 10 km
Cloud details: Few Clouds 213 m
Mostly Cloudy 1920 m
Oblačno 2286 m
2020/10/29 23:00 LYVR 292300Z AUTO 35009KT 330V100 9999 RA FEW007/// BKN063/// OVC075/// 11/10 Q1021
 
LYKV - Lađevci, Srbija
Ažurirano: 30/10/2020 00:00
Mostly Cloudy
Mostly Cloudy
 Pravac vetra varies
Vetar: varies 4 km/h
Temperatura: 12°C
Tačka rose: 12°C
Vlažnost: 100%
Pritisak: 1021 hPa
Oblaci: Mostly Cloudy
Vidljivost: 6 km
Cloud details: Mostly Cloudy 1219 m
2020/10/29 23:00 LYKV 292300Z VRB02KT 6000 BKN040 12/12 Q1021 NOSIG
LYNI - Niš, Srbija
Ažurirano: 30/10/2020 00:00
Mostly Cloudy
Mostly Cloudy
 Pravac vetra varies
Vetar: varies 2 km/h
Temperatura: 12°C
Tačka rose: 9°C
Vlažnost: 82%
Pritisak: 1020 hPa
Oblaci: Mostly Cloudy
Vidljivost: 10 km
Cloud details: Partly Cloudy 518 m
Mostly Cloudy 1219 m
2020/10/29 23:00 LYNI 292300Z VRB01KT 9999 SCT017 BKN040 12/09 Q1020 NOSIG
BKPR - Priština, Srbija
Ažurirano: 30/10/2020 00:30
Mostly Cloudy
Mostly Cloudy
 Pravac vetra varies
Vetar: varies 6 km/h
Temperatura: 11°C
Tačka rose: 7°C
Vlažnost: 77%
Pritisak: 1020 hPa
Oblaci: Mostly Cloudy
Vidljivost: 10 km
Cloud details: Partly Cloudy 1524 m
Mostly Cloudy 3658 m
2020/10/29 23:30 BKPR 292330Z VRB03KT 9999 SCT050 BKN120 11/07 Q1020 NOSIG
 
LHPP - Pecs / Pogany, Hungary
Ažurirano: 29/10/2020 22:45
NOT Current
Vedro
Vedro
 Pravac vetra ZSZ
Vetar: ZSZ 9 km/h
Temperatura: 10°C
Osećaj hladnoće: 9°C
Tačka rose: 7°C
Vlažnost: 82%
Pritisak: 1022 hPa
Pregled: Vedro
Vidljivost: greater than 10 km
2020/10/29 21:45 LHPP 292145Z 30005KT CAVOK 10/07 Q1022
LHUD - Szeged, Hungary
Ažurirano: 04/07/2019 01:45
NOT Current
Vedro
Vedro
 Pravac vetra S
Vetar: S 7 km/h
Temperatura: 18°C
Tačka rose: 13°C
Vlažnost: 73%
Pritisak: 1019 hPa
Pregled: Vedro
Vidljivost: greater than 10 km
2019/07/03 23:45 LHUD 032345Z 35004KT CAVOK 18/13 Q1019
LRTR - Timisoara, Romania
Ažurirano: 30/10/2020 00:00
Slaba kiša, Delimično oblačno
Slaba kiša, Delimično oblačno
 Pravac vetra varies
Vetar: varies 2 km/h
Temperatura: 10°C
Tačka rose: 10°C
Vlažnost: 100%
Pritisak: 1020 hPa
Pregled: Light Rain
Oblaci: Partly Cloudy
Vidljivost: 10 km
Cloud details: Few Clouds 183 m
Partly Cloudy 732 m
2020/10/29 23:00 LRTR 292300Z VRB01KT 9999 -RA FEW006 SCT024 10/10 Q1020 R11/290095
 
LRCV - Craiova, Romania
Ažurirano: 30/10/2020 00:00
Partly Cloudy
Partly Cloudy
 Pravac vetra JZ
Vetar: JZ 11 km/h
Temperatura: 11°C
Tačka rose: 10°C
Vlažnost: 94%
Pritisak: 1016 hPa
Oblaci: Partly Cloudy
Vidljivost: 6 km
Cloud details: Partly Cloudy 1372 m
2020/10/29 23:00 LRCV 292300Z 22006KT 6000 SCT045 11/10 Q1016
LBSF - Sofia, Bulgaria
Ažurirano: 30/10/2020 00:00
Oblačno
Oblačno
 Pravac vetra J
Vetar: J 7 km/h
Temperatura: 8°C
Osećaj hladnoće: 7°C
Tačka rose: 8°C
Vlažnost: 100%
Pritisak: 1019 hPa
Oblaci: Oblačno
Vidljivost: 6 km
Cloud details: Mostly Cloudy 1006 m
Oblačno 1250 m
2020/10/29 23:00 LBSF 292300Z 19004KT 6000 BKN033 OVC041 08/08 Q1019 TEMPO 2000 BR
LWSK - Skoplje, Makedonija
Ažurirano: 30/10/2020 00:30
Vedro
Vedro
 Pravac vetra varies
Vetar: varies 4 km/h
Temperatura: 10°C
Tačka rose: 9°C
Vlažnost: 94%
Pritisak: 1019 hPa
Pregled: Vedro
Vidljivost: greater than 10 km
2020/10/29 23:30 LWSK 292330Z VRB02KT CAVOK 10/09 Q1019 NOSIG
 
LYPG - Podgorica, Crna Gora
Ažurirano: 30/10/2020 00:00
Partly Cloudy
Partly Cloudy
 Pravac vetra SSZ
Vetar: SSZ 6 km/h
Temperatura: 12°C
Tačka rose: 10°C
Vlažnost: 88%
Pritisak: 1019 hPa
Oblaci: Partly Cloudy
Vidljivost: 10 km
Cloud details: Few Clouds 1219 m
Partly Cloudy 2743 m
2020/10/29 23:00 LYPG 292300Z 33003KT 290V010 9999 FEW040 SCT090 12/10 Q1019 NOSIG
LQSA - Sarajevo, Bosna i Hercegovina
Ažurirano: 30/10/2020 00:00
Mist, Pretežno oblačno
Mist, Pretežno oblačno
 Pravac vetra S
Vetar: S 4 km/h
Temperatura: 9°C
Tačka rose: 9°C
Vlažnost: 100%
Pritisak: 1022 hPa
Pregled: Mist
Oblaci: Mostly Cloudy
Vidljivost: 5 km
Cloud details: Few Clouds 1067 m
Mostly Cloudy 1524 m
2020/10/29 23:00 LQSA 292300Z 35002KT 5000 BR FEW035 BKN050 09/09 Q1022
LDOS - Osijek, Hrvatksa
Ažurirano: 30/10/2020 00:00
Mist, Delimično oblačno
Mist, Delimično oblačno
 Pravac vetra Z
Vetar: Z 11 km/h
Temperatura: 9°C
Osećaj hladnoće: 7°C
Tačka rose: 8°C
Vlažnost: 94%
Pritisak: 1022 hPa
Pregled: Mist
Oblaci: Partly Cloudy
Vidljivost: 2 km
2020/10/29 23:00 LDOS 292300Z 28006KT 2000 BR NSC 09/08 Q1022